sensor_id;sensor_type;location;lat;lon;timestamp;P1;durP1;ratioP1;P2;durP2;ratioP2
11653;SDS011;5883;48.818;9.114;2022-07-06T00:01:21;2.95;;;1.73;;
11653;SDS011;5883;48.818;9.114;2022-07-06T00:03:48;5.57;;;1.65;;
11653;SDS011;5883;48.818;9.114;2022-07-06T00:06:14;4.05;;;2.20;;
11653;SDS011;5883;48.818;9.114;2022-07-06T00:08:42;5.63;;;2.10;;
11653;SDS011;5883;48.818;9.114;2022-07-06T00:11:09;17.10;;;2.10;;
11653;SDS011;5883;48.818;9.114;2022-07-06T00:13:35;6.35;;;2.00;;
11653;SDS011;5883;48.818;9.114;2022-07-06T00:16:04;2.50;;;1.73;;
11653;SDS011;5883;48.818;9.114;2022-07-06T00:18:30;4.20;;;1.90;;
11653;SDS011;5883;48.818;9.114;2022-07-06T00:20:57;4.00;;;1.80;;
11653;SDS011;5883;48.818;9.114;2022-07-06T00:23:23;5.80;;;2.10;;
11653;SDS011;5883;48.818;9.114;2022-07-06T00:25:50;4.80;;;1.88;;
11653;SDS011;5883;48.818;9.114;2022-07-06T00:28:17;4.15;;;1.98;;
11653;SDS011;5883;48.818;9.114;2022-07-06T00:30:43;3.97;;;1.85;;
11653;SDS011;5883;48.818;9.114;2022-07-06T00:33:11;2.15;;;1.95;;
11653;SDS011;5883;48.818;9.114;2022-07-06T00:35:38;3.53;;;1.85;;
11653;SDS011;5883;48.818;9.114;2022-07-06T00:38:04;2.42;;;1.58;;
11653;SDS011;5883;48.818;9.114;2022-07-06T00:40:31;5.43;;;2.03;;
11653;SDS011;5883;48.818;9.114;2022-07-06T00:42:57;6.13;;;2.00;;
11653;SDS011;5883;48.818;9.114;2022-07-06T00:45:24;2.75;;;1.77;;
11653;SDS011;5883;48.818;9.114;2022-07-06T00:47:50;4.15;;;2.03;;
11653;SDS011;5883;48.818;9.114;2022-07-06T00:50:19;2.70;;;2.00;;
11653;SDS011;5883;48.818;9.114;2022-07-06T00:52:48;2.35;;;1.65;;
11653;SDS011;5883;48.818;9.114;2022-07-06T00:55:15;3.22;;;2.47;;
11653;SDS011;5883;48.818;9.114;2022-07-06T00:57:42;5.15;;;1.65;;
11653;SDS011;5883;48.818;9.114;2022-07-06T01:00:09;2.03;;;1.80;;
11653;SDS011;5883;48.818;9.114;2022-07-06T01:02:36;7.53;;;2.25;;
11653;SDS011;5883;48.818;9.114;2022-07-06T01:05:03;2.63;;;2.00;;
11653;SDS011;5883;48.818;9.114;2022-07-06T01:07:32;1.95;;;1.70;;
11653;SDS011;5883;48.818;9.114;2022-07-06T01:09:58;3.25;;;2.10;;
11653;SDS011;5883;48.818;9.114;2022-07-06T01:12:26;7.10;;;1.85;;
11653;SDS011;5883;48.818;9.114;2022-07-06T01:14:52;4.47;;;2.25;;
11653;SDS011;5883;48.818;9.114;2022-07-06T01:17:19;2.42;;;1.85;;
11653;SDS011;5883;48.818;9.114;2022-07-06T01:19:46;2.53;;;2.15;;
11653;SDS011;5883;48.818;9.114;2022-07-06T01:22:15;7.70;;;2.17;;
11653;SDS011;5883;48.818;9.114;2022-07-06T01:24:42;4.63;;;2.05;;
11653;SDS011;5883;48.818;9.114;2022-07-06T01:27:09;6.13;;;2.17;;
11653;SDS011;5883;48.818;9.114;2022-07-06T01:29:35;3.30;;;1.85;;
11653;SDS011;5883;48.818;9.114;2022-07-06T01:32:02;2.92;;;1.85;;
11653;SDS011;5883;48.818;9.114;2022-07-06T01:34:29;5.32;;;2.20;;
11653;SDS011;5883;48.818;9.114;2022-07-06T01:36:55;2.40;;;1.58;;
11653;SDS011;5883;48.818;9.114;2022-07-06T01:39:23;3.10;;;1.80;;
11653;SDS011;5883;48.818;9.114;2022-07-06T01:41:50;1.75;;;1.65;;
11653;SDS011;5883;48.818;9.114;2022-07-06T01:44:16;4.20;;;1.90;;
11653;SDS011;5883;48.818;9.114;2022-07-06T01:46:43;3.80;;;1.95;;
11653;SDS011;5883;48.818;9.114;2022-07-06T01:49:10;5.30;;;1.42;;
11653;SDS011;5883;48.818;9.114;2022-07-06T01:51:36;4.95;;;1.73;;
11653;SDS011;5883;48.818;9.114;2022-07-06T01:54:03;4.05;;;1.85;;
11653;SDS011;5883;48.818;9.114;2022-07-06T01:56:31;2.55;;;1.92;;
11653;SDS011;5883;48.818;9.114;2022-07-06T01:58:57;2.53;;;2.30;;
11653;SDS011;5883;48.818;9.114;2022-07-06T02:01:24;4.45;;;1.80;;
11653;SDS011;5883;48.818;9.114;2022-07-06T02:03:50;6.05;;;1.98;;
11653;SDS011;5883;48.818;9.114;2022-07-06T02:06:17;2.20;;;1.85;;
11653;SDS011;5883;48.818;9.114;2022-07-06T02:08:43;3.55;;;1.90;;
11653;SDS011;5883;48.818;9.114;2022-07-06T02:11:10;5.13;;;2.00;;
11653;SDS011;5883;48.818;9.114;2022-07-06T02:13:38;3.53;;;2.17;;
11653;SDS011;5883;48.818;9.114;2022-07-06T02:16:05;2.35;;;1.83;;
11653;SDS011;5883;48.818;9.114;2022-07-06T02:18:31;1.60;;;1.50;;
11653;SDS011;5883;48.818;9.114;2022-07-06T02:20:58;3.95;;;1.90;;
11653;SDS011;5883;48.818;9.114;2022-07-06T02:23:25;5.93;;;1.90;;
11653;SDS011;5883;48.818;9.114;2022-07-06T02:25:51;3.15;;;1.80;;
11653;SDS011;5883;48.818;9.114;2022-07-06T02:28:18;2.97;;;1.73;;
11653;SDS011;5883;48.818;9.114;2022-07-06T02:30:46;6.20;;;2.13;;
11653;SDS011;5883;48.818;9.114;2022-07-06T02:33:12;3.63;;;1.80;;
11653;SDS011;5883;48.818;9.114;2022-07-06T02:35:39;2.33;;;1.70;;
11653;SDS011;5883;48.818;9.114;2022-07-06T02:38:07;2.20;;;1.63;;
11653;SDS011;5883;48.818;9.114;2022-07-06T02:40:34;3.55;;;1.90;;
11653;SDS011;5883;48.818;9.114;2022-07-06T02:43:00;3.38;;;2.05;;
11653;SDS011;5883;48.818;9.114;2022-07-06T02:45:27;2.13;;;1.92;;
11653;SDS011;5883;48.818;9.114;2022-07-06T02:47:55;3.90;;;1.90;;
11653;SDS011;5883;48.818;9.114;2022-07-06T02:50:22;2.72;;;1.40;;
11653;SDS011;5883;48.818;9.114;2022-07-06T02:52:49;2.90;;;2.00;;
11653;SDS011;5883;48.818;9.114;2022-07-06T02:55:15;4.57;;;1.70;;
11653;SDS011;5883;48.818;9.114;2022-07-06T02:57:42;3.25;;;2.13;;
11653;SDS011;5883;48.818;9.114;2022-07-06T03:00:09;4.75;;;1.83;;
11653;SDS011;5883;48.818;9.114;2022-07-06T03:02:36;4.63;;;2.22;;
11653;SDS011;5883;48.818;9.114;2022-07-06T03:05:04;5.55;;;2.47;;
11653;SDS011;5883;48.818;9.114;2022-07-06T03:07:31;3.08;;;1.90;;
11653;SDS011;5883;48.818;9.114;2022-07-06T03:09:57;5.22;;;2.05;;
11653;SDS011;5883;48.818;9.114;2022-07-06T03:12:24;3.35;;;2.25;;
11653;SDS011;5883;48.818;9.114;2022-07-06T03:14:50;3.15;;;2.25;;
11653;SDS011;5883;48.818;9.114;2022-07-06T03:17:17;4.65;;;2.30;;
11653;SDS011;5883;48.818;9.114;2022-07-06T03:19:44;2.63;;;2.17;;
11653;SDS011;5883;48.818;9.114;2022-07-06T03:22:12;5.00;;;2.10;;
11653;SDS011;5883;48.818;9.114;2022-07-06T03:24:38;3.97;;;2.08;;
11653;SDS011;5883;48.818;9.114;2022-07-06T03:27:05;2.90;;;2.10;;
11653;SDS011;5883;48.818;9.114;2022-07-06T03:29:31;2.95;;;2.22;;
11653;SDS011;5883;48.818;9.114;2022-07-06T03:31:58;3.90;;;2.40;;
11653;SDS011;5883;48.818;9.114;2022-07-06T03:34:24;5.35;;;2.20;;
11653;SDS011;5883;48.818;9.114;2022-07-06T03:36:51;3.60;;;2.35;;
11653;SDS011;5883;48.818;9.114;2022-07-06T03:39:19;3.38;;;2.67;;
11653;SDS011;5883;48.818;9.114;2022-07-06T03:41:45;5.15;;;2.20;;
11653;SDS011;5883;48.818;9.114;2022-07-06T03:44:12;5.05;;;2.40;;
11653;SDS011;5883;48.818;9.114;2022-07-06T03:46:38;2.42;;;2.22;;
11653;SDS011;5883;48.818;9.114;2022-07-06T03:49:05;2.90;;;2.42;;
11653;SDS011;5883;48.818;9.114;2022-07-06T03:51:31;6.00;;;2.28;;
11653;SDS011;5883;48.818;9.114;2022-07-06T03:53:58;4.68;;;2.33;;
11653;SDS011;5883;48.818;9.114;2022-07-06T03:56:26;5.35;;;2.60;;
11653;SDS011;5883;48.818;9.114;2022-07-06T03:58:58;4.95;;;2.30;;
11653;SDS011;5883;48.818;9.114;2022-07-06T04:01:24;3.60;;;2.40;;
11653;SDS011;5883;48.818;9.114;2022-07-06T04:03:51;4.22;;;2.63;;
11653;SDS011;5883;48.818;9.114;2022-07-06T04:06:18;4.70;;;2.72;;
11653;SDS011;5883;48.818;9.114;2022-07-06T04:08:44;7.18;;;2.50;;
11653;SDS011;5883;48.818;9.114;2022-07-06T04:11:11;5.50;;;2.75;;
11653;SDS011;5883;48.818;9.114;2022-07-06T04:13:39;7.13;;;2.53;;
11653;SDS011;5883;48.818;9.114;2022-07-06T04:16:06;5.35;;;2.65;;
11653;SDS011;5883;48.818;9.114;2022-07-06T04:18:32;3.83;;;3.10;;
11653;SDS011;5883;48.818;9.114;2022-07-06T04:20:59;3.67;;;3.00;;
11653;SDS011;5883;48.818;9.114;2022-07-06T04:23:25;5.03;;;2.75;;
11653;SDS011;5883;48.818;9.114;2022-07-06T04:25:52;5.68;;;2.50;;
11653;SDS011;5883;48.818;9.114;2022-07-06T04:28:19;3.17;;;2.60;;
11653;SDS011;5883;48.818;9.114;2022-07-06T04:30:47;3.53;;;3.00;;
11653;SDS011;5883;48.818;9.114;2022-07-06T04:33:13;6.57;;;3.38;;
11653;SDS011;5883;48.818;9.114;2022-07-06T04:35:40;4.88;;;3.33;;
11653;SDS011;5883;48.818;9.114;2022-07-06T04:38:06;5.45;;;2.42;;
11653;SDS011;5883;48.818;9.114;2022-07-06T04:40:33;4.43;;;2.90;;
11653;SDS011;5883;48.818;9.114;2022-07-06T04:43:00;6.28;;;2.70;;
11653;SDS011;5883;48.818;9.114;2022-07-06T04:45:26;2.85;;;2.50;;
11653;SDS011;5883;48.818;9.114;2022-07-06T04:47:55;3.95;;;2.90;;
11653;SDS011;5883;48.818;9.114;2022-07-06T04:50:21;7.50;;;2.83;;
11653;SDS011;5883;48.818;9.114;2022-07-06T04:52:48;5.13;;;2.58;;
11653;SDS011;5883;48.818;9.114;2022-07-06T04:55:14;5.85;;;3.17;;
11653;SDS011;5883;48.818;9.114;2022-07-06T04:57:41;4.78;;;2.42;;
11653;SDS011;5883;48.818;9.114;2022-07-06T05:00:08;4.72;;;3.08;;
11653;SDS011;5883;48.818;9.114;2022-07-06T05:02:34;6.03;;;3.08;;
11653;SDS011;5883;48.818;9.114;2022-07-06T05:05:03;3.15;;;2.60;;
11653;SDS011;5883;48.818;9.114;2022-07-06T05:07:30;5.57;;;2.40;;
11653;SDS011;5883;48.818;9.114;2022-07-06T05:09:59;3.85;;;2.70;;
11653;SDS011;5883;48.818;9.114;2022-07-06T05:12:25;6.78;;;2.38;;
11653;SDS011;5883;48.818;9.114;2022-07-06T05:14:52;6.40;;;2.22;;
11653;SDS011;5883;48.818;9.114;2022-07-06T05:17:18;1.80;;;1.70;;
11653;SDS011;5883;48.818;9.114;2022-07-06T05:19:45;3.13;;;2.00;;
11653;SDS011;5883;48.818;9.114;2022-07-06T05:22:13;4.68;;;2.33;;
11653;SDS011;5883;48.818;9.114;2022-07-06T05:24:39;6.10;;;2.10;;
11653;SDS011;5883;48.818;9.114;2022-07-06T05:27:06;3.85;;;1.75;;
11653;SDS011;5883;48.818;9.114;2022-07-06T05:29:32;2.53;;;1.80;;
11653;SDS011;5883;48.818;9.114;2022-07-06T05:31:59;3.55;;;2.05;;
11653;SDS011;5883;48.818;9.114;2022-07-06T05:34:25;3.92;;;1.80;;
11653;SDS011;5883;48.818;9.114;2022-07-06T05:36:58;2.72;;;1.73;;
11653;SDS011;5883;48.818;9.114;2022-07-06T05:39:26;3.97;;;1.90;;
11653;SDS011;5883;48.818;9.114;2022-07-06T05:41:53;4.05;;;1.75;;
11653;SDS011;5883;48.818;9.114;2022-07-06T05:44:19;3.30;;;1.88;;
11653;SDS011;5883;48.818;9.114;2022-07-06T05:46:48;3.45;;;1.85;;
11653;SDS011;5883;48.818;9.114;2022-07-06T05:49:18;5.07;;;1.83;;
11653;SDS011;5883;48.818;9.114;2022-07-06T05:52:05;1.38;;;1.27;;
11653;SDS011;5883;48.818;9.114;2022-07-06T05:54:35;5.25;;;1.75;;
11653;SDS011;5883;48.818;9.114;2022-07-06T05:57:02;6.40;;;1.70;;
11653;SDS011;5883;48.818;9.114;2022-07-06T05:59:28;2.45;;;1.73;;
11653;SDS011;5883;48.818;9.114;2022-07-06T06:02:01;2.45;;;1.35;;
11653;SDS011;5883;48.818;9.114;2022-07-06T06:04:28;6.20;;;2.00;;
11653;SDS011;5883;48.818;9.114;2022-07-06T06:06:54;4.60;;;2.08;;
11653;SDS011;5883;48.818;9.114;2022-07-06T06:09:23;4.80;;;2.30;;
11653;SDS011;5883;48.818;9.114;2022-07-06T06:11:51;10.88;;;1.90;;
11653;SDS011;5883;48.818;9.114;2022-07-06T06:14:17;6.25;;;2.30;;
11653;SDS011;5883;48.818;9.114;2022-07-06T06:16:46;3.03;;;1.90;;
11653;SDS011;5883;48.818;9.114;2022-07-06T06:19:12;3.15;;;2.15;;
11653;SDS011;5883;48.818;9.114;2022-07-06T06:21:39;3.28;;;2.08;;
11653;SDS011;5883;48.818;9.114;2022-07-06T06:24:07;5.10;;;1.95;;
11653;SDS011;5883;48.818;9.114;2022-07-06T06:26:34;3.10;;;2.17;;
11653;SDS011;5883;48.818;9.114;2022-07-06T06:29:06;2.42;;;1.70;;
11653;SDS011;5883;48.818;9.114;2022-07-06T06:31:34;5.00;;;2.20;;
11653;SDS011;5883;48.818;9.114;2022-07-06T06:34:02;3.40;;;1.58;;
11653;SDS011;5883;48.818;9.114;2022-07-06T06:36:28;3.28;;;1.75;;
11653;SDS011;5883;48.818;9.114;2022-07-06T06:38:55;2.63;;;1.55;;
11653;SDS011;5883;48.818;9.114;2022-07-06T06:41:23;5.38;;;1.60;;
11653;SDS011;5883;48.818;9.114;2022-07-06T06:43:50;4.63;;;1.38;;
11653;SDS011;5883;48.818;9.114;2022-07-06T06:46:21;3.60;;;1.65;;
11653;SDS011;5883;48.818;9.114;2022-07-06T06:48:49;3.08;;;1.67;;
11653;SDS011;5883;48.818;9.114;2022-07-06T06:51:16;1.73;;;1.38;;
11653;SDS011;5883;48.818;9.114;2022-07-06T06:53:45;1.60;;;1.45;;
11653;SDS011;5883;48.818;9.114;2022-07-06T06:56:14;4.78;;;2.15;;
11653;SDS011;5883;48.818;9.114;2022-07-06T06:58:42;1.92;;;1.50;;
11653;SDS011;5883;48.818;9.114;2022-07-06T07:01:09;3.22;;;1.60;;
11653;SDS011;5883;48.818;9.114;2022-07-06T07:03:37;2.30;;;1.60;;
11653;SDS011;5883;48.818;9.114;2022-07-06T07:06:03;6.15;;;2.42;;
11653;SDS011;5883;48.818;9.114;2022-07-06T07:08:30;2.42;;;1.52;;
11653;SDS011;5883;48.818;9.114;2022-07-06T07:10:57;6.55;;;1.98;;
11653;SDS011;5883;48.818;9.114;2022-07-06T07:13:23;1.92;;;1.65;;
11653;SDS011;5883;48.818;9.114;2022-07-06T07:15:50;3.20;;;1.48;;
11653;SDS011;5883;48.818;9.114;2022-07-06T07:18:17;3.63;;;1.83;;
11653;SDS011;5883;48.818;9.114;2022-07-06T07:20:45;3.53;;;1.48;;
11653;SDS011;5883;48.818;9.114;2022-07-06T07:23:11;2.35;;;1.50;;
11653;SDS011;5883;48.818;9.114;2022-07-06T07:25:38;3.40;;;1.20;;
11653;SDS011;5883;48.818;9.114;2022-07-06T07:28:05;4.85;;;1.48;;
11653;SDS011;5883;48.818;9.114;2022-07-06T07:30:31;1.98;;;1.35;;
11653;SDS011;5883;48.818;9.114;2022-07-06T07:32:58;5.57;;;1.30;;
11653;SDS011;5883;48.818;9.114;2022-07-06T07:35:26;2.60;;;1.30;;
11653;SDS011;5883;48.818;9.114;2022-07-06T07:37:54;3.45;;;1.65;;
11653;SDS011;5883;48.818;9.114;2022-07-06T07:40:20;3.47;;;1.45;;
11653;SDS011;5883;48.818;9.114;2022-07-06T07:42:48;4.55;;;1.58;;
11653;SDS011;5883;48.818;9.114;2022-07-06T07:45:14;2.45;;;1.50;;
11653;SDS011;5883;48.818;9.114;2022-07-06T07:47:41;2.35;;;1.10;;
11653;SDS011;5883;48.818;9.114;2022-07-06T07:50:08;4.50;;;1.20;;
11653;SDS011;5883;48.818;9.114;2022-07-06T07:52:35;2.03;;;1.20;;
11653;SDS011;5883;48.818;9.114;2022-07-06T07:55:04;2.60;;;1.70;;
11653;SDS011;5883;48.818;9.114;2022-07-06T07:57:30;5.53;;;1.50;;
11653;SDS011;5883;48.818;9.114;2022-07-06T07:59:57;6.50;;;1.63;;
11653;SDS011;5883;48.818;9.114;2022-07-06T08:02:24;4.43;;;1.15;;
11653;SDS011;5883;48.818;9.114;2022-07-06T08:04:50;3.75;;;1.40;;
11653;SDS011;5883;48.818;9.114;2022-07-06T08:07:17;2.78;;;1.65;;
11653;SDS011;5883;48.818;9.114;2022-07-06T08:09:44;1.70;;;1.10;;
11653;SDS011;5883;48.818;9.114;2022-07-06T08:12:12;7.30;;;1.73;;
11653;SDS011;5883;48.818;9.114;2022-07-06T08:14:39;2.03;;;1.35;;
11653;SDS011;5883;48.818;9.114;2022-07-06T08:17:05;2.55;;;1.30;;
11653;SDS011;5883;48.818;9.114;2022-07-06T08:19:32;8.13;;;1.90;;
11653;SDS011;5883;48.818;9.114;2022-07-06T08:21:58;4.03;;;1.52;;
11653;SDS011;5883;48.818;9.114;2022-07-06T08:24:25;3.63;;;1.58;;
11653;SDS011;5883;48.818;9.114;2022-07-06T08:26:52;4.47;;;1.58;;
11653;SDS011;5883;48.818;9.114;2022-07-06T08:29:20;3.50;;;1.23;;
11653;SDS011;5883;48.818;9.114;2022-07-06T08:31:46;4.05;;;1.70;;
11653;SDS011;5883;48.818;9.114;2022-07-06T08:34:13;3.25;;;1.55;;
11653;SDS011;5883;48.818;9.114;2022-07-06T08:36:39;2.97;;;1.50;;
11653;SDS011;5883;48.818;9.114;2022-07-06T08:39:06;2.08;;;1.30;;
11653;SDS011;5883;48.818;9.114;2022-07-06T08:41:33;3.05;;;1.27;;
11653;SDS011;5883;48.818;9.114;2022-07-06T08:44:00;4.03;;;1.42;;
11653;SDS011;5883;48.818;9.114;2022-07-06T08:46:28;7.28;;;2.15;;
11653;SDS011;5883;48.818;9.114;2022-07-06T08:48:55;1.85;;;1.30;;
11653;SDS011;5883;48.818;9.114;2022-07-06T08:51:22;10.85;;;1.77;;
11653;SDS011;5883;48.818;9.114;2022-07-06T08:53:49;3.28;;;1.70;;
11653;SDS011;5883;48.818;9.114;2022-07-06T08:56:16;2.85;;;1.63;;
11653;SDS011;5883;48.818;9.114;2022-07-06T08:58:44;3.90;;;1.30;;
11653;SDS011;5883;48.818;9.114;2022-07-06T09:01:11;3.55;;;1.95;;
11653;SDS011;5883;48.818;9.114;2022-07-06T09:03:40;2.80;;;1.45;;
11653;SDS011;5883;48.818;9.114;2022-07-06T09:06:07;1.55;;;1.27;;
11653;SDS011;5883;48.818;9.114;2022-07-06T09:08:34;4.43;;;1.33;;
11653;SDS011;5883;48.818;9.114;2022-07-06T09:11:02;2.38;;;1.27;;
11653;SDS011;5883;48.818;9.114;2022-07-06T09:13:28;7.28;;;1.63;;
11653;SDS011;5883;48.818;9.114;2022-07-06T09:15:55;2.92;;;1.33;;
11653;SDS011;5883;48.818;9.114;2022-07-06T09:18:21;3.08;;;1.30;;
11653;SDS011;5883;48.818;9.114;2022-07-06T09:20:50;3.33;;;1.92;;
11653;SDS011;5883;48.818;9.114;2022-07-06T09:23:16;3.53;;;1.38;;
11653;SDS011;5883;48.818;9.114;2022-07-06T09:25:46;4.28;;;1.52;;
11653;SDS011;5883;48.818;9.114;2022-07-06T09:28:14;2.58;;;1.75;;
11653;SDS011;5883;48.818;9.114;2022-07-06T09:30:40;4.82;;;1.67;;
11653;SDS011;5883;48.818;9.114;2022-07-06T09:33:07;1.88;;;1.45;;
11653;SDS011;5883;48.818;9.114;2022-07-06T09:35:35;2.42;;;1.48;;
11653;SDS011;5883;48.818;9.114;2022-07-06T09:38:05;4.55;;;1.77;;
11653;SDS011;5883;48.818;9.114;2022-07-06T09:40:33;2.75;;;1.40;;
11653;SDS011;5883;48.818;9.114;2022-07-06T09:43:09;3.30;;;1.42;;
11653;SDS011;5883;48.818;9.114;2022-07-06T09:45:36;6.93;;;1.60;;
11653;SDS011;5883;48.818;9.114;2022-07-06T09:48:07;3.00;;;1.38;;
11653;SDS011;5883;48.818;9.114;2022-07-06T09:50:44;3.58;;;1.70;;
11653;SDS011;5883;48.818;9.114;2022-07-06T09:53:12;2.35;;;1.50;;
11653;SDS011;5883;48.818;9.114;2022-07-06T09:55:42;7.95;;;1.83;;
11653;SDS011;5883;48.818;9.114;2022-07-06T09:58:09;3.50;;;1.75;;
11653;SDS011;5883;48.818;9.114;2022-07-06T10:00:36;3.28;;;1.73;;
11653;SDS011;5883;48.818;9.114;2022-07-06T10:03:03;2.22;;;1.55;;
11653;SDS011;5883;48.818;9.114;2022-07-06T10:05:30;6.82;;;1.92;;
11653;SDS011;5883;48.818;9.114;2022-07-06T10:07:58;4.47;;;1.73;;
11653;SDS011;5883;48.818;9.114;2022-07-06T10:10:26;6.72;;;1.63;;
11653;SDS011;5883;48.818;9.114;2022-07-06T10:12:54;4.05;;;2.08;;
11653;SDS011;5883;48.818;9.114;2022-07-06T10:15:21;3.60;;;1.98;;
11653;SDS011;5883;48.818;9.114;2022-07-06T10:17:48;8.27;;;1.95;;
11653;SDS011;5883;48.818;9.114;2022-07-06T10:20:16;7.35;;;1.83;;
11653;SDS011;5883;48.818;9.114;2022-07-06T10:22:46;4.25;;;1.92;;
11653;SDS011;5883;48.818;9.114;2022-07-06T10:25:13;5.70;;;1.70;;
11653;SDS011;5883;48.818;9.114;2022-07-06T10:27:41;3.08;;;2.13;;
11653;SDS011;5883;48.818;9.114;2022-07-06T10:30:09;4.00;;;1.60;;
11653;SDS011;5883;48.818;9.114;2022-07-06T10:32:36;11.32;;;2.00;;
11653;SDS011;5883;48.818;9.114;2022-07-06T10:35:04;4.28;;;1.90;;
11653;SDS011;5883;48.818;9.114;2022-07-06T10:37:31;4.40;;;2.03;;
11653;SDS011;5883;48.818;9.114;2022-07-06T10:39:59;3.78;;;1.80;;
11653;SDS011;5883;48.818;9.114;2022-07-06T10:42:55;2.58;;;1.48;;
11653;SDS011;5883;48.818;9.114;2022-07-06T10:48:16;6.68;;;1.98;;
11653;SDS011;5883;48.818;9.114;2022-07-06T10:50:46;4.75;;;1.95;;
11653;SDS011;5883;48.818;9.114;2022-07-06T10:53:13;4.40;;;2.00;;
11653;SDS011;5883;48.818;9.114;2022-07-06T10:55:40;3.17;;;2.15;;
11653;SDS011;5883;48.818;9.114;2022-07-06T10:58:08;5.88;;;2.22;;
11653;SDS011;5883;48.818;9.114;2022-07-06T11:00:47;3.88;;;1.65;;
11653;SDS011;5883;48.818;9.114;2022-07-06T11:03:30;4.03;;;2.00;;
11653;SDS011;5883;48.818;9.114;2022-07-06T11:05:57;3.95;;;2.00;;
11653;SDS011;5883;48.818;9.114;2022-07-06T11:08:36;4.70;;;2.30;;
11653;SDS011;5883;48.818;9.114;2022-07-06T11:11:10;4.18;;;1.88;;
11653;SDS011;5883;48.818;9.114;2022-07-06T11:13:43;3.95;;;2.00;;
11653;SDS011;5883;48.818;9.114;2022-07-06T11:16:09;5.25;;;1.95;;
11653;SDS011;5883;48.818;9.114;2022-07-06T11:18:39;3.65;;;2.25;;
11653;SDS011;5883;48.818;9.114;2022-07-06T11:21:19;4.30;;;2.10;;
11653;SDS011;5883;48.818;9.114;2022-07-06T11:23:47;2.65;;;1.67;;
11653;SDS011;5883;48.818;9.114;2022-07-06T11:26:14;6.50;;;1.65;;
11653;SDS011;5883;48.818;9.114;2022-07-06T11:28:45;7.50;;;2.22;;
11653;SDS011;5883;48.818;9.114;2022-07-06T11:31:13;5.18;;;2.13;;
11653;SDS011;5883;48.818;9.114;2022-07-06T11:33:40;6.35;;;1.75;;
11653;SDS011;5883;48.818;9.114;2022-07-06T11:36:16;5.43;;;2.33;;
11653;SDS011;5883;48.818;9.114;2022-07-06T11:38:44;3.92;;;1.83;;
11653;SDS011;5883;48.818;9.114;2022-07-06T11:41:11;3.38;;;1.88;;
11653;SDS011;5883;48.818;9.114;2022-07-06T11:43:39;5.78;;;1.98;;
11653;SDS011;5883;48.818;9.114;2022-07-06T11:48:51;3.30;;;1.80;;
11653;SDS011;5883;48.818;9.114;2022-07-06T11:51:18;4.22;;;2.00;;
11653;SDS011;5883;48.818;9.114;2022-07-06T11:53:46;3.97;;;1.77;;
11653;SDS011;5883;48.818;9.114;2022-07-06T11:56:14;3.65;;;2.10;;
11653;SDS011;5883;48.818;9.114;2022-07-06T11:58:41;2.33;;;2.00;;
11653;SDS011;5883;48.818;9.114;2022-07-06T12:01:10;5.40;;;2.28;;
11653;SDS011;5883;48.818;9.114;2022-07-06T12:03:37;4.78;;;1.88;;
11653;SDS011;5883;48.818;9.114;2022-07-06T12:06:06;4.30;;;2.20;;
11653;SDS011;5883;48.818;9.114;2022-07-06T12:08:40;2.75;;;1.80;;
11653;SDS011;5883;48.818;9.114;2022-07-06T12:11:07;6.60;;;2.25;;
11653;SDS011;5883;48.818;9.114;2022-07-06T12:13:35;3.92;;;1.60;;
11653;SDS011;5883;48.818;9.114;2022-07-06T12:16:08;2.55;;;1.83;;
11653;SDS011;5883;48.818;9.114;2022-07-06T12:18:38;3.30;;;2.00;;
11653;SDS011;5883;48.818;9.114;2022-07-06T12:21:08;4.25;;;2.42;;
11653;SDS011;5883;48.818;9.114;2022-07-06T12:23:38;4.28;;;2.10;;
11653;SDS011;5883;48.818;9.114;2022-07-06T12:26:05;5.03;;;2.00;;
11653;SDS011;5883;48.818;9.114;2022-07-06T12:28:32;4.38;;;2.22;;
11653;SDS011;5883;48.818;9.114;2022-07-06T12:30:59;2.83;;;1.88;;
11653;SDS011;5883;48.818;9.114;2022-07-06T12:33:25;7.90;;;2.30;;
11653;SDS011;5883;48.818;9.114;2022-07-06T12:35:53;5.60;;;2.45;;
11653;SDS011;5883;48.818;9.114;2022-07-06T12:38:24;4.30;;;1.83;;
11653;SDS011;5883;48.818;9.114;2022-07-06T12:40:51;2.53;;;1.95;;
11653;SDS011;5883;48.818;9.114;2022-07-06T12:46:00;2.08;;;1.65;;
11653;SDS011;5883;48.818;9.114;2022-07-06T12:48:53;5.30;;;2.00;;
11653;SDS011;5883;48.818;9.114;2022-07-06T12:51:20;4.85;;;1.98;;
11653;SDS011;5883;48.818;9.114;2022-07-06T12:53:48;4.03;;;1.80;;
11653;SDS011;5883;48.818;9.114;2022-07-06T12:56:15;4.03;;;1.60;;
11653;SDS011;5883;48.818;9.114;2022-07-06T12:58:58;2.67;;;1.35;;
11653;SDS011;5883;48.818;9.114;2022-07-06T13:01:25;6.18;;;1.83;;
11653;SDS011;5883;48.818;9.114;2022-07-06T13:03:56;5.97;;;2.00;;
11653;SDS011;5883;48.818;9.114;2022-07-06T13:06:26;7.88;;;1.98;;
11653;SDS011;5883;48.818;9.114;2022-07-06T13:08:55;4.75;;;1.80;;
11653;SDS011;5883;48.818;9.114;2022-07-06T13:11:21;3.97;;;1.65;;
11653;SDS011;5883;48.818;9.114;2022-07-06T13:13:48;1.83;;;1.38;;
11653;SDS011;5883;48.818;9.114;2022-07-06T13:16:15;3.20;;;1.38;;
11653;SDS011;5883;48.818;9.114;2022-07-06T13:18:41;3.05;;;1.30;;
11653;SDS011;5883;48.818;9.114;2022-07-06T13:21:08;4.30;;;1.88;;
11653;SDS011;5883;48.818;9.114;2022-07-06T13:23:36;4.47;;;1.60;;
11653;SDS011;5883;48.818;9.114;2022-07-06T13:26:04;4.57;;;1.70;;
11653;SDS011;5883;48.818;9.114;2022-07-06T13:28:31;3.97;;;1.77;;
11653;SDS011;5883;48.818;9.114;2022-07-06T13:30:58;4.47;;;1.92;;
11653;SDS011;5883;48.818;9.114;2022-07-06T13:33:24;2.70;;;1.50;;
11653;SDS011;5883;48.818;9.114;2022-07-06T13:35:51;2.97;;;1.75;;
11653;SDS011;5883;48.818;9.114;2022-07-06T13:38:18;4.10;;;1.70;;
11653;SDS011;5883;48.818;9.114;2022-07-06T13:40:45;3.75;;;1.88;;
11653;SDS011;5883;48.818;9.114;2022-07-06T13:43:13;1.92;;;1.38;;
11653;SDS011;5883;48.818;9.114;2022-07-06T13:45:39;5.57;;;1.98;;
11653;SDS011;5883;48.818;9.114;2022-07-06T13:48:06;6.78;;;1.58;;
11653;SDS011;5883;48.818;9.114;2022-07-06T13:50:33;6.03;;;1.77;;
11653;SDS011;5883;48.818;9.114;2022-07-06T13:52:59;3.45;;;1.70;;
11653;SDS011;5883;48.818;9.114;2022-07-06T13:55:26;3.67;;;1.70;;
11653;SDS011;5883;48.818;9.114;2022-07-06T13:57:53;4.63;;;1.67;;
11653;SDS011;5883;48.818;9.114;2022-07-06T14:00:22;2.78;;;1.52;;
11653;SDS011;5883;48.818;9.114;2022-07-06T14:02:52;3.25;;;1.40;;
11653;SDS011;5883;48.818;9.114;2022-07-06T14:05:18;4.32;;;1.52;;
11653;SDS011;5883;48.818;9.114;2022-07-06T14:07:45;8.20;;;1.45;;
11653;SDS011;5883;48.818;9.114;2022-07-06T14:10:12;2.88;;;1.35;;
11653;SDS011;5883;48.818;9.114;2022-07-06T14:12:39;5.68;;;2.00;;
11653;SDS011;5883;48.818;9.114;2022-07-06T14:15:06;2.70;;;1.70;;
11653;SDS011;5883;48.818;9.114;2022-07-06T14:17:35;2.70;;;1.50;;
11653;SDS011;5883;48.818;9.114;2022-07-06T14:20:01;6.00;;;1.50;;
11653;SDS011;5883;48.818;9.114;2022-07-06T14:22:28;3.72;;;1.38;;
11653;SDS011;5883;48.818;9.114;2022-07-06T14:24:55;4.50;;;1.38;;
11653;SDS011;5883;48.818;9.114;2022-07-06T14:27:22;2.38;;;1.23;;
11653;SDS011;5883;48.818;9.114;2022-07-06T14:29:48;1.42;;;1.33;;
11653;SDS011;5883;48.818;9.114;2022-07-06T14:32:15;3.13;;;1.27;;
11653;SDS011;5883;48.818;9.114;2022-07-06T14:34:43;2.28;;;1.50;;
11653;SDS011;5883;48.818;9.114;2022-07-06T14:37:10;4.18;;;1.55;;
11653;SDS011;5883;48.818;9.114;2022-07-06T14:39:37;6.13;;;1.80;;
11653;SDS011;5883;48.818;9.114;2022-07-06T14:42:04;2.90;;;1.60;;
11653;SDS011;5883;48.818;9.114;2022-07-06T14:44:30;4.60;;;1.50;;
11653;SDS011;5883;48.818;9.114;2022-07-06T14:46:57;2.15;;;1.40;;
11653;SDS011;5883;48.818;9.114;2022-07-06T14:49:24;6.25;;;1.77;;
11653;SDS011;5883;48.818;9.114;2022-07-06T14:51:52;4.68;;;1.63;;
11653;SDS011;5883;48.818;9.114;2022-07-06T14:54:19;2.55;;;1.40;;
11653;SDS011;5883;48.818;9.114;2022-07-06T14:56:45;1.67;;;1.25;;
11653;SDS011;5883;48.818;9.114;2022-07-06T14:59:12;2.28;;;1.40;;
11653;SDS011;5883;48.818;9.114;2022-07-06T15:01:39;2.85;;;1.15;;
11653;SDS011;5883;48.818;9.114;2022-07-06T15:04:06;3.38;;;1.27;;
11653;SDS011;5883;48.818;9.114;2022-07-06T15:06:32;3.70;;;1.48;;
11653;SDS011;5883;48.818;9.114;2022-07-06T15:09:00;2.25;;;1.50;;
11653;SDS011;5883;48.818;9.114;2022-07-06T15:11:29;5.63;;;1.65;;